Time;durP1;ratioP1;P1;durP2;ratioP2;P2;SDS_P1;SDS_P2;PMS_P1;PMS_P2;Temp;Humidity;BMP_temperature;BMP_pressure;BME280_temperature;BME280_humidity;BME280_pressure;Samples;Min_cycle;Max_cycle;Signal;HPM_P1;HPM_P2
2022/08/28 00:00:17;;;;;;;7.43;6.43;;;19.50;99.90;;;;;;5093023;28;20056;-80
2022/08/28 00:02:44;;;;;;;13.32;7.07;;;19.40;99.90;;;;;;5091941;28;20392;-78
2022/08/28 00:05:10;;;;;;;14.43;8.27;;;19.20;99.90;;;;;;5091957;28;20027;-80
2022/08/28 00:07:36;;;;;;;8.93;7.93;;;19.20;99.90;;;;;;5093008;28;20024;-78
2022/08/28 00:10:03;;;;;;;12.00;8.20;;;19.10;99.90;;;;;;5091979;28;20115;-78
2022/08/28 00:12:30;;;;;;;8.20;7.25;;;19.00;99.90;;;;;;5091790;28;20431;-80
2022/08/28 00:14:56;;;;;;;9.82;7.22;;;19.00;99.90;;;;;;5092034;28;20024;-80
2022/08/28 00:17:22;;;;;;;10.85;7.80;;;19.00;99.90;;;;;;5091686;28;20085;-80
2022/08/28 00:19:47;;;;;;;11.20;7.25;;;19.00;99.90;;;;;;5091639;28;20048;-80
2022/08/28 00:22:13;;;;;;;9.15;7.35;;;19.00;99.90;;;;;;5081903;28;20040;-78
2022/08/28 00:24:39;;;;;;;12.43;7.43;;;19.00;99.90;;;;;;5071305;28;20021;-80
2022/08/28 00:29:49;;;;;;;7.18;6.10;;;18.80;99.90;;;;;;5072937;28;20043;-80
2022/08/28 00:32:15;;;;;;;7.90;6.68;;;18.80;99.90;;;;;;5072489;28;20052;-78
2022/08/28 00:34:41;;;;;;;9.25;6.93;;;18.70;99.90;;;;;;5072488;28;20052;-78
2022/08/28 00:37:07;;;;;;;10.52;7.03;;;18.60;99.90;;;;;;5071454;28;20519;-80
2022/08/28 00:39:33;;;;;;;8.93;7.05;;;18.60;99.90;;;;;;5072314;28;20021;-78
2022/08/28 00:41:59;;;;;;;8.32;6.45;;;18.60;99.90;;;;;;5072253;28;20108;-80
2022/08/28 00:44:26;;;;;;;13.40;6.72;;;18.50;99.90;;;;;;5072248;28;20170;-81
2022/08/28 00:46:54;;;;;;;10.80;6.45;;;18.50;99.90;;;;;;5091630;28;20034;-78
2022/08/28 00:49:27;;;;;;;8.52;7.30;;;18.40;99.90;;;;;;5094706;28;20032;-81
2022/08/28 00:52:11;;;;;;;11.75;7.85;;;18.40;99.90;;;;;;5096230;28;20020;-78
2022/08/28 00:54:47;;;;;;;9.65;7.40;;;18.30;99.90;;;;;;5096268;28;20032;-77
2022/08/28 00:57:19;;;;;;;7.75;6.80;;;18.20;99.90;;;;;;5096239;28;20428;-77
2022/08/28 00:59:44;;;;;;;10.35;6.72;;;18.20;99.90;;;;;;5094764;28;20022;-81
2022/08/28 01:02:10;;;;;;;8.63;7.05;;;18.20;99.90;;;;;;5095627;28;20109;-77
2022/08/28 01:04:36;;;;;;;12.52;7.40;;;18.10;99.90;;;;;;5094557;28;20020;-80
2022/08/28 01:07:06;;;;;;;11.65;8.23;;;18.10;99.90;;;;;;5095782;28;20031;-77
2022/08/28 01:09:33;;;;;;;8.15;6.85;;;18.10;99.90;;;;;;5094776;28;20028;-80
2022/08/28 01:12:09;;;;;;;9.75;7.10;;;18.00;99.90;;;;;;5094296;28;20055;-77
2022/08/28 01:14:37;;;;;;;11.50;8.13;;;18.00;99.90;;;;;;5095717;28;20077;-78
2022/08/28 01:17:05;;;;;;;10.70;8.07;;;18.00;99.90;;;;;;5095616;28;20054;-78
2022/08/28 01:19:36;;;;;;;10.30;8.07;;;17.90;99.90;;;;;;5094240;28;20040;-81
2022/08/28 01:22:24;;;;;;;10.10;7.00;;;17.90;99.90;;;;;;5084449;28;20123;-78
2022/08/28 01:24:52;;;;;;;10.45;6.85;;;17.80;99.90;;;;;;5075309;28;20024;-78
2022/08/28 01:27:18;;;;;;;8.95;6.78;;;17.70;99.90;;;;;;5075135;28;20028;-80
2022/08/28 01:29:44;;;;;;;7.85;7.13;;;17.70;99.90;;;;;;5075200;28;20016;-77
2022/08/28 01:32:10;;;;;;;9.95;6.68;;;17.60;99.90;;;;;;5073651;28;20028;-80
2022/08/28 01:34:35;;;;;;;8.98;7.10;;;17.60;99.90;;;;;;5073816;28;20051;-79
2022/08/28 01:37:01;;;;;;;11.65;7.20;;;17.60;99.90;;;;;;5075272;28;20032;-77
2022/08/28 01:39:27;;;;;;;11.90;7.70;;;17.50;99.90;;;;;;5075028;28;20385;-78
2022/08/28 01:41:54;;;;;;;11.52;7.85;;;17.50;99.90;;;;;;5074748;28;20367;-78
2022/08/28 01:44:24;;;;;;;12.55;8.32;;;17.50;99.90;;;;;;5073776;28;20074;-77
2022/08/28 01:46:51;;;;;;;12.75;8.43;;;17.50;99.90;;;;;;5089745;28;20031;-80
2022/08/28 01:49:18;;;;;;;11.88;8.93;;;17.40;99.90;;;;;;5095266;28;20445;-80
2022/08/28 01:51:44;;;;;;;11.15;8.75;;;17.40;99.90;;;;;;5093853;28;20020;-80
2022/08/28 01:54:10;;;;;;;12.13;8.73;;;17.40;99.90;;;;;;5093533;28;20028;-79
2022/08/28 01:56:36;;;;;;;13.02;8.32;;;17.30;99.90;;;;;;5093752;28;20035;-80
2022/08/28 01:59:05;;;;;;;10.82;8.60;;;17.30;99.90;;;;;;5094749;28;20027;-77
2022/08/28 02:01:32;;;;;;;12.93;8.27;;;17.30;99.90;;;;;;5094681;28;20032;-77
2022/08/28 02:03:58;;;;;;;11.35;8.70;;;17.30;99.90;;;;;;5095076;28;20046;-80
2022/08/28 02:06:24;;;;;;;10.00;7.97;;;17.30;99.90;;;;;;5094699;28;20419;-80
2022/08/28 02:08:54;;;;;;;12.82;8.40;;;17.30;99.90;;;;;;5094454;28;20020;-80
2022/08/28 02:11:22;;;;;;;12.70;8.85;;;17.30;99.90;;;;;;5094277;28;20035;-78
2022/08/28 02:13:49;;;;;;;10.30;7.70;;;17.30;99.90;;;;;;5093101;28;20043;-77
2022/08/28 02:16:16;;;;;;;12.00;9.07;;;17.30;99.90;;;;;;5094426;28;20066;-79
2022/08/28 02:18:42;;;;;;;12.70;8.35;;;17.30;99.90;;;;;;5093011;28;20034;-80
2022/08/28 02:21:09;;;;;;;11.05;8.15;;;17.30;99.90;;;;;;5092683;28;20443;-77
2022/08/28 02:23:37;;;;;;;9.77;7.63;;;17.40;99.90;;;;;;5094213;28;20077;-77
2022/08/28 02:26:03;;;;;;;12.85;8.68;;;17.30;99.90;;;;;;5093407;28;20403;-80
2022/08/28 02:28:28;;;;;;;10.35;7.97;;;17.40;99.90;;;;;;5092710;28;20020;-80
2022/08/28 02:30:54;;;;;;;9.00;7.57;;;17.40;99.90;;;;;;5094352;28;20020;-77
2022/08/28 02:33:20;;;;;;;9.13;8.27;;;17.30;99.90;;;;;;5092831;28;20028;-79
2022/08/28 02:35:45;;;;;;;14.23;9.25;;;17.40;99.90;;;;;;5092915;28;20513;-78
2022/08/28 02:38:11;;;;;;;14.85;9.55;;;17.40;99.90;;;;;;5093858;28;20030;-77
2022/08/28 02:40:37;;;;;;;13.52;9.60;;;17.40;99.90;;;;;;5092730;28;20039;-77
2022/08/28 02:43:04;;;;;;;12.00;9.05;;;17.30;99.90;;;;;;5092682;28;20484;-77
2022/08/28 02:45:30;;;;;;;14.23;10.18;;;17.30;99.90;;;;;;5092528;28;20017;-77
2022/08/28 02:47:56;;;;;;;12.55;9.88;;;17.20;99.90;;;;;;5093927;28;20032;-77
2022/08/28 02:50:22;;;;;;;14.98;9.15;;;17.20;99.90;;;;;;5093935;28;20031;-79
2022/08/28 02:52:49;;;;;;;14.02;10.60;;;17.20;99.90;;;;;;5092835;28;20021;-80
2022/08/28 02:55:17;;;;;;;14.18;10.32;;;17.30;99.90;;;;;;5092691;28;20031;-77
2022/08/28 02:57:44;;;;;;;16.48;10.25;;;17.30;99.90;;;;;;5092390;28;20020;-80
2022/08/28 03:00:13;;;;;;;10.48;7.82;;;17.30;99.90;;;;;;5093768;28;20020;-77
2022/08/28 03:02:40;;;;;;;11.48;8.98;;;17.40;99.90;;;;;;5092817;28;20052;-79
2022/08/28 03:05:06;;;;;;;14.55;10.07;;;17.40;99.90;;;;;;5093542;28;20031;-80
2022/08/28 03:07:32;;;;;;;17.42;11.55;;;17.40;99.90;;;;;;5092934;28;20470;-80
2022/08/28 03:09:57;;;;;;;24.60;15.23;;;17.30;99.90;;;;;;5092287;28;20020;-77
2022/08/28 03:12:23;;;;;;;19.75;13.13;;;17.40;99.90;;;;;;5093570;28;20025;-77
2022/08/28 03:14:50;;;;;;;16.45;11.43;;;17.40;99.90;;;;;;5092274;28;20482;-80
2022/08/28 03:17:16;;;;;;;15.35;10.43;;;17.40;99.90;;;;;;5092099;28;20034;-80
2022/08/28 03:19:42;;;;;;;16.33;10.57;;;17.40;99.90;;;;;;5091808;28;20044;-77
2022/08/28 03:22:08;;;;;;;12.10;9.90;;;17.40;99.90;;;;;;5082192;28;20070;-77
2022/08/28 03:24:33;;;;;;;10.45;9.32;;;17.50;99.90;;;;;;5073119;28;20102;-77
2022/08/28 03:27:00;;;;;;;13.13;9.85;;;17.60;99.90;;;;;;5073221;28;20028;-80
2022/08/28 03:29:26;;;;;;;13.77;10.38;;;17.60;99.90;;;;;;5073213;28;20025;-77
2022/08/28 03:31:52;;;;;;;13.25;10.15;;;17.60;99.90;;;;;;5072291;28;20031;-80
2022/08/28 03:34:18;;;;;;;15.55;10.82;;;17.60;99.90;;;;;;5072868;28;20024;-80
2022/08/28 03:36:43;;;;;;;13.90;9.40;;;17.60;99.90;;;;;;5073314;28;20039;-78
2022/08/28 03:39:09;;;;;;;10.90;9.30;;;17.60;99.90;;;;;;5071638;28;20032;-77
2022/08/28 03:41:35;;;;;;;16.30;10.35;;;17.60;99.90;;;;;;5071667;28;20032;-80
2022/08/28 03:44:02;;;;;;;17.23;10.82;;;17.60;99.90;;;;;;5073317;28;20036;-77
2022/08/28 03:46:31;;;;;;;15.45;10.82;;;17.50;99.90;;;;;;5086405;28;20028;-77
2022/08/28 03:48:58;;;;;;;10.40;9.02;;;17.50;99.90;;;;;;5093260;28;20016;-77
2022/08/28 03:51:28;;;;;;;10.30;8.98;;;17.40;99.90;;;;;;5091848;28;20025;-77
2022/08/28 03:53:54;;;;;;;11.73;8.55;;;17.40;99.90;;;;;;5091736;28;20061;-80
2022/08/28 03:56:23;;;;;;;10.90;8.70;;;17.40;99.90;;;;;;5092326;28;20016;-78
2022/08/28 03:58:51;;;;;;;10.40;8.32;;;17.30;99.90;;;;;;5091643;28;20031;-80
2022/08/28 04:01:18;;;;;;;14.40;9.95;;;17.40;99.90;;;;;;5092992;28;20508;-80
2022/08/28 04:03:44;;;;;;;17.48;10.73;;;17.30;99.90;;;;;;5093121;28;20026;-77
2022/08/28 04:06:11;;;;;;;14.75;10.38;;;17.20;99.90;;;;;;5091732;28;20115;-77
2022/08/28 04:08:36;;;;;;;12.93;9.32;;;17.30;99.90;;;;;;5093193;28;20016;-77
2022/08/28 04:11:03;;;;;;;11.52;9.70;;;17.20;99.90;;;;;;5092929;28;20500;-80
2022/08/28 04:13:29;;;;;;;10.70;9.43;;;17.30;99.90;;;;;;5092960;28;20059;-76
2022/08/28 04:16:01;;;;;;;11.20;9.45;;;17.30;99.90;;;;;;5091552;28;20024;-77
2022/08/28 04:18:28;;;;;;;11.25;10.02;;;17.30;99.90;;;;;;5091899;28;20061;-77
2022/08/28 04:21:02;;;;;;;11.40;9.63;;;17.40;99.90;;;;;;5095459;28;20047;-76
2022/08/28 04:23:28;;;;;;;11.00;9.80;;;17.40;99.90;;;;;;5076674;28;20122;-80
2022/08/28 04:25:54;;;;;;;13.32;9.85;;;17.40;99.90;;;;;;5076432;28;20390;-77
2022/08/28 04:28:21;;;;;;;11.82;10.30;;;17.40;99.90;;;;;;5076307;28;20032;-80
2022/08/28 04:30:50;;;;;;;13.82;11.35;;;17.40;99.90;;;;;;5076173;28;20017;-80
2022/08/28 04:33:17;;;;;;;13.75;9.63;;;17.30;99.90;;;;;;5076086;28;20390;-80
2022/08/28 04:35:43;;;;;;;12.25;9.75;;;17.30;99.90;;;;;;5076110;28;20021;-77
2022/08/28 04:38:08;;;;;;;15.23;9.95;;;17.20;99.90;;;;;;5075134;28;20021;-77
2022/08/28 04:40:38;;;;;;;11.23;9.73;;;17.10;99.90;;;;;;5074997;28;20052;-77
2022/08/28 04:43:04;;;;;;;12.55;9.55;;;17.20;99.90;;;;;;5074816;28;20020;-77
2022/08/28 04:45:30;;;;;;;12.35;10.70;;;17.10;99.90;;;;;;5080435;28;20073;-77
2022/08/28 04:47:56;;;;;;;11.20;9.90;;;17.20;99.90;;;;;;5095257;28;20020;-77
2022/08/28 04:50:22;;;;;;;14.13;9.68;;;17.20;99.90;;;;;;5095115;28;20111;-77
2022/08/28 05:05:10;;;;;;;10.90;9.40;;;17.30;99.90;;;;;;5136112;27;20432;-76
2022/08/28 05:07:36;;;;;;;14.93;9.93;;;17.80;99.90;;;;;;5130698;28;20023;-75
2022/08/28 05:10:02;;;;;;;12.73;9.80;;;17.80;99.90;;;;;;5131258;27;20023;-79
2022/08/28 05:12:28;;;;;;;12.10;10.68;;;18.00;99.90;;;;;;5131403;27;20027;-76
2022/08/28 05:14:53;;;;;;;14.63;11.50;;;18.10;99.90;;;;;;5130594;28;20135;-76
2022/08/28 05:17:19;;;;;;;12.32;10.52;;;18.20;99.90;;;;;;5130357;28;20515;-77
2022/08/28 05:19:46;;;;;;;13.60;10.02;;;18.20;99.90;;;;;;5131207;28;20092;-79
2022/08/28 05:22:12;;;;;;;14.63;11.57;;;18.30;99.90;;;;;;5131316;27;20016;-76
2022/08/28 05:24:38;;;;;;;15.20;10.98;;;18.40;99.90;;;;;;5130486;28;20064;-78
2022/08/28 05:27:05;;;;;;;13.05;11.23;;;18.40;99.90;;;;;;5130036;28;20051;-79
2022/08/28 05:29:31;;;;;;;16.20;11.70;;;18.40;99.90;;;;;;5117591;27;20047;-76
2022/08/28 05:31:56;;;;;;;17.20;13.07;;;18.40;99.90;;;;;;5110784;28;20020;-78
2022/08/28 05:34:22;;;;;;;19.40;14.02;;;18.40;99.90;;;;;;5110758;28;20110;-76
2022/08/28 05:36:47;;;;;;;17.42;13.48;;;18.40;99.90;;;;;;5109179;28;20023;-79
2022/08/28 05:39:13;;;;;;;18.30;14.90;;;18.60;99.90;;;;;;5110509;28;20099;-79
2022/08/28 05:41:42;;;;;;;20.25;14.52;;;18.70;99.90;;;;;;5109324;28;20483;-79
2022/08/28 05:44:10;;;;;;;25.05;16.60;;;18.70;99.90;;;;;;5110824;28;20050;-79
2022/08/28 05:46:38;;;;;;;24.20;15.63;;;18.80;99.90;;;;;;5110371;28;20035;-81
2022/08/28 05:49:04;;;;;;;24.98;15.15;;;18.80;99.90;;;;;;5109304;28;20107;-81
2022/08/28 05:51:30;;;;;;;22.15;15.18;;;19.00;99.90;;;;;;5110224;28;20016;-83
2022/08/28 05:53:57;;;;;;;23.42;17.17;;;19.20;99.90;;;;;;5110566;28;20504;-81
2022/08/28 05:56:26;;;;;;;22.63;17.55;;;19.40;99.90;;;;;;5110711;28;20034;-81
2022/08/28 05:58:51;;;;;;;22.48;17.30;;;19.60;99.90;;;;;;5108442;28;20126;-79
2022/08/28 06:01:28;;;;;;;23.08;16.95;;;19.70;99.90;;;;;;5109548;28;20044;-78
2022/08/28 06:04:00;;;;;;;25.00;17.27;;;19.90;99.90;;;;;;5124711;28;20097;-77
2022/08/28 06:06:28;;;;;;;23.45;16.45;;;20.00;99.90;;;;;;5116192;28;20119;-77
2022/08/28 06:09:00;;;;;;;22.70;16.40;;;20.20;99.90;;;;;;5116436;28;20023;-76
2022/08/28 06:11:29;;;;;;;29.33;18.13;;;20.30;99.90;;;;;;5115012;28;20055;-77
2022/08/28 06:13:56;;;;;;;23.75;16.73;;;20.50;99.90;;;;;;5116325;28;20070;-77
2022/08/28 06:16:22;;;;;;;22.20;17.13;;;20.50;99.90;;;;;;5116579;28;20047;-76
2022/08/28 06:18:49;;;;;;;20.83;16.42;;;20.60;99.90;;;;;;5116293;28;20026;-76
2022/08/28 06:21:15;;;;;;;21.67;17.02;;;20.60;99.90;;;;;;5116141;28;20052;-80
2022/08/28 06:23:41;;;;;;;21.63;17.15;;;20.70;99.90;;;;;;5111585;28;20488;-78
2022/08/28 06:26:07;;;;;;;30.38;17.17;;;20.80;99.90;;;;;;5094232;28;20042;-78
2022/08/28 06:28:32;;;;;;;22.08;17.45;;;20.90;99.90;;;;;;5095981;28;20032;-78
2022/08/28 06:31:01;;;;;;;25.45;18.05;;;21.00;99.90;;;;;;5115681;28;20123;-79
2022/08/28 06:33:27;;;;;;;28.50;18.30;;;21.00;99.90;;;;;;5114495;28;20066;-79
2022/08/28 06:35:54;;;;;;;32.88;19.80;;;21.10;99.90;;;;;;5114404;28;20412;-79
2022/08/28 06:38:23;;;;;;;29.83;19.73;;;21.10;99.90;;;;;;5105259;28;20404;-80
2022/08/28 06:40:52;;;;;;;27.92;20.90;;;21.20;99.90;;;;;;5112922;28;20118;-80
2022/08/28 06:43:20;;;;;;;27.02;18.98;;;21.20;99.90;;;;;;5115857;28;20031;-78
2022/08/28 06:45:47;;;;;;;27.92;19.90;;;21.30;99.90;;;;;;5115771;28;20557;-80
2022/08/28 06:48:15;;;;;;;25.52;18.30;;;21.30;99.90;;;;;;5105816;28;20030;-79
2022/08/28 06:50:43;;;;;;;22.65;17.95;;;21.40;99.90;;;;;;5104229;28;20023;-79
2022/08/28 06:53:11;;;;;;;20.55;17.55;;;21.40;99.90;;;;;;5115548;28;20040;-79
2022/08/28 06:55:37;;;;;;;25.80;18.30;;;21.40;99.90;;;;;;5109270;28;20028;-80
2022/08/28 06:58:06;;;;;;;21.92;17.83;;;21.50;99.90;;;;;;5104794;28;20035;-81
2022/08/28 07:00:34;;;;;;;24.23;16.95;;;21.60;99.90;;;;;;5103397;28;20053;-80
2022/08/28 07:03:00;;;;;;;23.27;16.67;;;21.90;99.90;;;;;;5104876;28;20020;-80
2022/08/28 07:05:26;;;;;;;18.83;16.08;;;22.20;99.90;;;;;;5103522;28;20072;-81
2022/08/28 07:07:51;;;;;;;19.27;15.70;;;22.40;99.90;;;;;;5105068;28;20384;-81
2022/08/28 07:10:17;;;;;;;20.27;14.25;;;22.60;99.90;;;;;;5115081;28;20028;-80
2022/08/28 07:12:43;;;;;;;17.52;13.55;;;22.90;99.90;;;;;;5115210;28;20429;-80
2022/08/28 07:15:09;;;;;;;15.32;13.48;;;23.10;99.90;;;;;;5107056;28;20023;-79
2022/08/28 07:17:35;;;;;;;17.20;13.93;;;23.20;99.90;;;;;;5103838;28;20103;-80
2022/08/28 07:20:03;;;;;;;20.55;12.77;;;23.50;99.90;;;;;;5103039;28;20169;-80
2022/08/28 07:22:28;;;;;;;16.70;11.30;;;23.70;99.90;;;;;;5104387;28;20193;-80
2022/08/28 07:24:55;;;;;;;18.40;12.52;;;23.90;99.90;;;;;;5096958;28;20035;-80
2022/08/28 07:27:23;;;;;;;19.30;13.70;;;23.90;99.90;;;;;;5094369;28;20020;-80
2022/08/28 07:29:51;;;;;;;13.90;11.85;;;24.00;99.90;;;;;;5093234;28;20036;-80
2022/08/28 07:32:17;;;;;;;16.42;13.90;;;24.20;99.90;;;;;;5094369;28;20362;-81
2022/08/28 07:34:43;;;;;;;15.10;12.50;;;24.30;99.90;;;;;;5101361;28;20018;-81
2022/08/28 07:37:09;;;;;;;15.15;11.65;;;24.30;99.90;;;;;;5104690;28;20091;-81
2022/08/28 07:39:35;;;;;;;16.05;12.35;;;24.40;99.90;;;;;;5102030;28;20024;-80
2022/08/28 07:42:01;;;;;;;16.85;11.75;;;24.30;99.90;;;;;;5103913;28;20019;-81
2022/08/28 07:47:11;;;;;;;15.65;11.05;;;24.40;99.90;;;;;;5103682;28;20085;-81
2022/08/28 07:49:38;;;;;;;10.60;9.55;;;24.60;99.90;;;;;;5101640;28;20026;-81
2022/08/28 07:52:05;;;;;;;14.27;10.95;;;24.80;99.90;;;;;;5103062;28;20027;-81
2022/08/28 07:54:31;;;;;;;16.13;9.95;;;24.90;99.90;;;;;;5103546;28;20047;-81
2022/08/28 07:56:57;;;;;;;10.98;8.90;;;24.90;99.90;;;;;;5101465;28;20523;-82
2022/08/28 07:59:23;;;;;;;12.27;9.05;;;25.00;99.90;;;;;;5103068;28;20385;-81
2022/08/28 08:01:50;;;;;;;14.05;8.98;;;25.00;99.90;;;;;;5103046;28;20455;-81
2022/08/28 08:04:19;;;;;;;12.23;10.45;;;25.10;99.90;;;;;;5103194;28;20093;-81
2022/08/28 08:06:45;;;;;;;13.32;10.13;;;25.30;99.90;;;;;;5102420;28;20020;-81
2022/08/28 08:09:13;;;;;;;15.38;11.00;;;25.40;99.90;;;;;;5101775;28;20055;-82
2022/08/28 08:11:39;;;;;;;11.00;9.32;;;25.40;99.90;;;;;;5101507;28;20065;-81
2022/08/28 08:14:06;;;;;;;13.52;9.48;;;25.60;99.90;;;;;;5096498;28;20032;-81
2022/08/28 08:16:37;;;;;;;10.95;9.52;;;25.70;99.90;;;;;;5093185;28;20027;-81
2022/08/28 08:19:04;;;;;;;11.97;9.33;;;25.90;97.60;;;;;;5093036;28;20064;-81
2022/08/28 08:21:30;;;;;;;9.60;8.18;;;25.90;95.40;;;;;;5093209;28;20672;-82
2022/08/28 08:23:55;;;;;;;9.85;8.85;;;26.00;93.90;;;;;;5092569;28;20063;-81
2022/08/28 08:26:24;;;;;;;10.65;8.90;;;26.10;95.90;;;;;;5092721;28;20103;-82
2022/08/28 08:28:50;;;;;;;11.25;9.30;;;26.20;96.60;;;;;;5097678;28;20111;-82
2022/08/28 08:31:23;;;;;;;11.10;8.02;;;26.20;92.70;;;;;;5092849;28;20020;-82
2022/08/28 08:33:51;;;;;;;10.32;7.65;;;26.30;88.30;;;;;;5097296;28;20069;-82
2022/08/28 08:36:19;;;;;;;8.00;6.90;;;26.50;86.90;;;;;;5100388;28;20073;-82
2022/08/28 08:38:45;;;;;;;7.97;7.18;;;26.60;89.00;;;;;;5092505;28;20043;-82
2022/08/28 08:41:31;;;;;;;10.77;6.85;;;26.50;83.70;;;;;;5092765;28;20138;-82
2022/08/28 08:44:17;;;;;;;10.70;7.93;;;26.30;82.50;;;;;;5092308;28;20063;-82
2022/08/28 08:46:52;;;;;;;8.98;7.35;;;26.50;81.50;;;;;;5092216;28;20028;-82
2022/08/28 08:49:21;;;;;;;7.93;6.97;;;26.80;84.90;;;;;;5092629;28;20012;-82
2022/08/28 08:52:12;;;;;;;8.75;7.28;;;26.80;82.70;;;;;;5091252;28;20111;-82
2022/08/28 08:55:13;;;;;;;8.48;7.20;;;26.80;81.60;;;;;;5087286;28;20040;-83
2022/08/28 08:57:39;;;;;;;12.27;7.93;;;26.60;79.10;;;;;;5091327;28;20036;-82
2022/08/28 09:00:08;;;;;;;9.40;7.15;;;26.60;80.30;;;;;;5105875;28;20476;-83
2022/08/28 09:02:42;;;;;;;11.15;7.88;;;26.50;81.90;;;;;;5100913;28;20112;-82
2022/08/28 09:05:21;;;;;;;10.40;7.25;;;26.70;79.90;;;;;;5112861;28;20492;-82
2022/08/28 09:07:56;;;;;;;11.02;7.90;;;26.80;81.40;;;;;;5113651;28;20429;-82
2022/08/28 09:10:25;;;;;;;10.43;8.48;;;26.90;86.00;;;;;;5112901;28;20364;-82
2022/08/28 09:13:19;;;;;;;8.73;7.82;;;26.70;83.40;;;;;;5113191;28;20392;-84
2022/08/28 09:15:45;;;;;;;10.82;7.88;;;26.60;83.10;;;;;;5111214;28;20019;-82
2022/08/28 09:18:13;;;;;;;8.43;6.82;;;26.80;85.60;;;;;;5110968;28;20023;-82
2022/08/28 09:20:40;;;;;;;8.82;6.78;;;26.80;79.90;;;;;;5111074;28;20024;-82
2022/08/28 09:23:06;;;;;;;8.82;6.70;;;26.80;79.90;;;;;;5110736;28;20032;-82
2022/08/28 09:25:49;;;;;;;10.60;6.68;;;26.80;79.40;;;;;;5111197;28;20020;-82
2022/08/28 09:28:19;;;;;;;10.57;6.32;;;26.50;77.80;;;;;;5111850;28;20036;-82
2022/08/28 09:31:27;;;;;;;9.52;7.35;;;26.60;80.50;;;;;;5112948;28;20480;-82
2022/08/28 09:33:53;;;;;;;9.20;7.47;;;26.50;83.10;;;;;;5013604;28;20022;-82
2022/08/28 09:36:37;;;;;;;9.00;8.05;;;26.30;86.20;;;;;;5095729;28;20538;-82
2022/08/28 09:39:15;;;;;;;10.30;8.15;;;26.20;88.00;;;;;;5108807;28;20110;-82
2022/08/28 09:44:31;;;;;;;11.55;7.70;;;26.20;92.20;;;;;;5099967;28;20096;-82
2022/08/28 09:46:57;;;;;;;10.23;9.07;;;26.40;92.70;;;;;;5117006;28;20426;-82
2022/08/28 09:49:27;;;;;;;10.95;8.65;;;26.60;87.00;;;;;;5116547;28;20051;-82
2022/08/28 09:51:54;;;;;;;9.70;8.63;;;26.80;86.20;;;;;;5116780;28;20023;-82
2022/08/28 09:54:20;;;;;;;9.98;8.93;;;26.90;85.20;;;;;;5116215;28;20045;-82
2022/08/28 09:56:47;;;;;;;10.38;7.72;;;27.00;81.00;;;;;;5116862;28;20020;-82
2022/08/28 09:59:16;;;;;;;13.02;8.00;;;27.20;77.40;;;;;;5115963;28;20027;-82
2022/08/28 10:02:09;;;;;;;7.97;7.20;;;27.40;80.30;;;;;;5116471;28;20096;-81
2022/08/28 10:04:53;;;;;;;;;;;27.70;74.50;;;;;;5100495;28;20055;-82
2022/08/28 10:07:37;;;;;;;12.45;7.78;;;27.70;73.70;;;;;;5115094;28;19904;-82
2022/08/28 10:10:03;;;;;;;7.43;6.63;;;27.70;72.70;;;;;;5114843;28;20028;-83
2022/08/28 10:12:34;;;;;;;9.68;7.22;;;27.70;74.60;;;;;;5116405;28;20366;-83
2022/08/28 10:15:12;;;;;;;9.05;6.88;;;27.90;76.70;;;;;;5116000;28;20035;-82
2022/08/28 10:17:43;;;;;;;9.30;7.03;;;28.20;76.50;;;;;;5115304;28;20073;-82
2022/08/28 10:20:15;;;;;;;7.75;7.03;;;28.10;74.00;;;;;;5114403;28;20020;-83
2022/08/28 10:23:02;;;;;;;9.30;6.72;;;27.80;73.70;;;;;;5116056;28;20023;-83
2022/08/28 10:25:42;;;;;;;8.35;6.97;;;27.70;71.80;;;;;;5114638;27;20031;-83
2022/08/28 10:28:25;;;;;;;11.30;6.65;;;27.80;75.20;;;;;;5115916;28;20016;-83
2022/08/28 10:31:47;;;;;;;9.77;6.00;;;27.90;70.60;;;;;;5114187;28;20460;-83
2022/08/28 10:34:37;;;;;;;7.72;6.28;;;28.10;66.80;;;;;;5016354;28;20034;-83
2022/08/28 10:37:02;;;;;;;7.68;6.10;;;28.30;67.40;;;;;;5033046;28;20445;-83
2022/08/28 10:39:48;;;;;;;8.90;6.18;;;28.30;67.20;;;;;;5094982;28;20325;-83
2022/08/28 10:42:22;;;;;;;7.97;6.03;;;28.60;68.10;;;;;;5114997;28;20118;-82
2022/08/28 10:44:57;;;;;;;7.63;6.70;;;28.70;65.90;;;;;;5115762;28;20035;-83
2022/08/28 10:47:27;;;;;;;7.13;6.35;;;28.80;66.80;;;;;;5115537;28;20041;-84
2022/08/28 10:50:00;;;;;;;8.82;6.70;;;28.70;65.10;;;;;;5114178;28;20027;-83
2022/08/28 10:52:42;;;;;;;8.82;6.60;;;28.80;68.00;;;;;;5093961;28;20024;-84
2022/08/28 10:55:20;;;;;;;7.85;7.00;;;28.60;67.00;;;;;;5094721;28;20028;-83
2022/08/28 10:57:56;;;;;;;8.88;6.93;;;28.70;68.00;;;;;;5093636;28;20020;-84
2022/08/28 11:00:25;;;;;;;8.68;7.05;;;28.70;65.20;;;;;;5096486;28;20039;-84
2022/08/28 11:02:56;;;;;;;10.43;7.60;;;28.50;67.90;;;;;;5103048;28;20126;-83
2022/08/28 11:05:25;;;;;;;9.38;8.20;;;28.30;69.30;;;;;;5115385;28;20070;-82
2022/08/28 11:08:02;;;;;;;8.23;7.30;;;28.40;68.30;;;;;;5104630;28;20024;-84
2022/08/28 11:10:31;;;;;;;8.65;7.00;;;28.50;69.40;;;;;;5102788;28;20020;-83
2022/08/28 11:12:58;;;;;;;9.35;7.95;;;28.70;70.40;;;;;;5102270;28;20073;-83
2022/08/28 11:15:27;;;;;;;10.80;8.73;;;28.50;69.70;;;;;;5103010;28;20012;-83
2022/08/28 11:18:14;;;;;;;9.10;8.23;;;28.20;71.80;;;;;;5102609;28;20110;-83
2022/08/28 11:21:14;;;;;;;9.18;8.13;;;27.80;73.10;;;;;;5103247;28;20020;-83
2022/08/28 11:23:46;;;;;;;9.32;8.43;;;27.70;73.30;;;;;;5104925;28;20028;-83
2022/08/28 11:26:20;;;;;;;9.27;8.35;;;27.60;73.60;;;;;;5102274;28;20024;-83
2022/08/28 11:28:46;;;;;;;12.70;9.15;;;27.60;74.00;;;;;;5107833;28;20027;-83
2022/08/28 11:31:12;;;;;;;8.57;7.82;;;27.70;74.60;;;;;;5114516;28;20467;-83
2022/08/28 11:33:49;;;;;;;12.32;9.40;;;27.60;71.70;;;;;;5114776;28;20028;-83
2022/08/28 11:36:20;;;;;;;12.98;9.60;;;27.40;75.20;;;;;;5114621;28;20433;-84
2022/08/28 11:38:51;;;;;;;8.70;7.95;;;27.40;77.10;;;;;;5114381;28;20465;-84
2022/08/28 11:41:30;;;;;;;11.18;8.43;;;27.50;75.10;;;;;;5114322;28;20020;-83
2022/08/28 11:44:09;;;;;;;8.95;8.05;;;27.40;71.30;;;;;;5114571;28;20055;-84
2022/08/28 11:46:38;;;;;;;9.60;8.60;;;27.40;71.20;;;;;;5114582;28;20012;-83
2022/08/28 11:49:33;;;;;;;9.57;7.45;;;27.50;72.80;;;;;;5114172;28;20035;-83
2022/08/28 11:52:16;;;;;;;11.70;8.35;;;27.50;71.70;;;;;;5103945;28;20019;-83
2022/08/28 11:54:45;;;;;;;12.43;10.63;;;27.50;74.80;;;;;;5104176;28;20055;-83
2022/08/28 11:57:39;;;;;;;14.07;11.27;;;27.50;78.00;;;;;;5112189;28;20043;-83
2022/08/28 12:00:20;;;;;;;10.90;9.60;;;27.20;80.00;;;;;;5111707;28;20034;-83
2022/08/28 12:02:51;;;;;;;10.82;8.95;;;27.30;79.80;;;;;;5105141;28;20065;-83
2022/08/28 12:05:16;;;;;;;9.93;8.75;;;27.60;78.70;;;;;;5093941;28;20050;-83
2022/08/28 12:07:46;;;;;;;24.00;10.45;;;27.70;76.40;;;;;;5091969;28;20024;-83
2022/08/28 12:10:25;;;;;;;12.35;9.52;;;28.00;76.80;;;;;;5090251;28;20020;-83
2022/08/28 12:12:59;;;;;;;12.05;10.15;;;28.00;74.00;;;;;;5092449;28;20028;-83
2022/08/28 12:15:32;;;;;;;13.10;10.88;;;28.00;72.90;;;;;;5089874;28;20039;-83
2022/08/28 12:17:59;;;;;;;12.15;10.90;;;28.10;70.90;;;;;;5091841;28;20020;-84
2022/08/28 12:20:39;;;;;;;11.65;9.77;;;28.20;70.60;;;;;;5090979;28;20028;-83
2022/08/28 12:23:43;;;;;;;13.10;8.35;;;28.10;70.60;;;;;;5092669;28;20028;-83
2022/08/28 12:26:12;;;;;;;10.90;8.98;;;28.20;70.10;;;;;;5091576;28;20059;-83
2022/08/28 12:29:06;;;;;;;10.10;8.80;;;28.10;66.90;;;;;;5091696;28;20126;-84
2022/08/28 12:32:12;;;;;;;11.88;9.30;;;28.00;67.30;;;;;;5094271;28;20085;-83
2022/08/28 12:34:42;;;;;;;12.02;10.80;;;27.90;69.20;;;;;;5108497;28;20027;-83
2022/08/28 12:37:37;;;;;;;14.95;11.75;;;27.70;71.90;;;;;;5101939;28;20049;-83
2022/08/28 12:40:04;;;;;;;17.15;11.95;;;27.50;73.70;;;;;;5112785;27;20027;-83
2022/08/28 12:42:33;;;;;;;15.35;12.40;;;27.40;76.40;;;;;;5104890;28;20487;-82
2022/08/28 12:45:05;;;;;;;16.05;13.15;;;27.30;78.80;;;;;;5103794;28;20085;-83
2022/08/28 12:47:33;;;;;;;15.52;12.35;;;27.20;79.90;;;;;;5101138;28;20342;-83
2022/08/28 12:50:16;;;;;;;21.50;12.40;;;27.10;81.20;;;;;;5103826;28;20024;-82
2022/08/28 12:52:50;;;;;;;19.13;12.95;;;27.10;81.40;;;;;;5101961;28;20053;-81
2022/08/28 12:55:17;;;;;;;17.40;12.82;;;27.00;86.50;;;;;;5102041;28;20100;-81
2022/08/28 12:57:46;;;;;;;22.83;14.77;;;26.80;90.60;;;;;;5109612;28;20107;-83
2022/08/28 13:00:17;;;;;;;27.13;17.20;;;26.50;98.60;;;;;;5104544;28;20031;-81
2022/08/28 13:02:43;;;;;;;23.98;15.80;;;26.30;99.90;;;;;;5101380;28;20366;-84
2022/08/28 13:05:20;;;;;;;17.88;15.02;;;26.10;99.90;;;;;;5106386;28;20035;-84
2022/08/28 13:07:52;;;;;;;24.13;17.45;;;25.90;99.90;;;;;;5109000;28;20043;-83
2022/08/28 13:10:35;;;;;;;22.45;15.93;;;25.70;99.90;;;;;;5112568;28;20023;-81